Time;durP1;ratioP1;P1;durP2;ratioP2;P2;SDS_P1;SDS_P2;PMS_P1;PMS_P2;Temp;Humidity;BMP_temperature;BMP_pressure;BME280_temperature;BME280_humidity;BME280_pressure;Samples;Min_cycle;Max_cycle;Signal;HPM_P1;HPM_P2
2023/02/28 00:00:31;;;;;;;9.8;7.4;;;;;;;;;;;;;
2023/02/28 00:02:56;;;;;;;8.4;7.2;;;;;;;;;;;;;
2023/02/28 00:05:23;;;;;;;8.5;6.6;;;;;;;;;;;;;
2023/02/28 00:07:48;;;;;;;8.4;6.9;;;;;;;;;;;;;
2023/02/28 00:10:14;;;;;;;8.5;7.3;;;;;;;;;;;;;
2023/02/28 00:12:43;;;;;;;9;6.9;;;;;;;;;;;;;
2023/02/28 00:15:15;;;;;;;8.7;6.9;;;;;;;;;;;;;
2023/02/28 00:17:50;;;;;;;11.2;6.8;;;;;;;;;;;;;
2023/02/28 00:20:17;;;;;;;7.8;6.9;;;;;;;;;;;;;
2023/02/28 00:22:44;;;;;;;8.9;6.9;;;;;;;;;;;;;
2023/02/28 00:25:09;;;;;;;8.2;6.5;;;;;;;;;;;;;
2023/02/28 00:27:39;;;;;;;9.5;7.1;;;;;;;;;;;;;
2023/02/28 00:30:08;;;;;;;9.6;6.8;;;;;;;;;;;;;
2023/02/28 00:32:34;;;;;;;8.7;6.9;;;;;;;;;;;;;
2023/02/28 00:35:01;;;;;;;8.6;7;;;;;;;;;;;;;
2023/02/28 00:37:29;;;;;;;8.5;6.5;;;;;;;;;;;;;
2023/02/28 00:40:07;;;;;;;8.2;7;;;;;;;;;;;;;
2023/02/28 00:42:36;;;;;;;7.8;6.6;;;;;;;;;;;;;
2023/02/28 00:45:03;;;;;;;7.8;6.5;;;;;;;;;;;;;
2023/02/28 00:47:26;;;;;;;8.7;7;;;;;;;;;;;;;
2023/02/28 00:49:52;;;;;;;9.4;7.1;;;;;;;;;;;;;
2023/02/28 00:52:17;;;;;;;8.4;6.9;;;;;;;;;;;;;
2023/02/28 00:54:43;;;;;;;8.4;7.2;;;;;;;;;;;;;
2023/02/28 00:57:08;;;;;;;9.5;6.8;;;;;;;;;;;;;
2023/02/28 00:59:33;;;;;;;10.3;7.5;;;;;;;;;;;;;
2023/02/28 01:01:58;;;;;;;9.9;7;;;;;;;;;;;;;
2023/02/28 01:04:24;;;;;;;8.7;7.4;;;;;;;;;;;;;
2023/02/28 01:06:49;;;;;;;8.4;6.9;;;;;;;;;;;;;
2023/02/28 01:09:15;;;;;;;9.2;6.8;;;;;;;;;;;;;
2023/02/28 01:11:43;;;;;;;9;6.9;;;;;;;;;;;;;
2023/02/28 01:14:06;;;;;;;8.7;6.9;;;;;;;;;;;;;
2023/02/28 01:16:31;;;;;;;8.6;7.1;;;;;;;;;;;;;
2023/02/28 01:19:05;;;;;;;9.5;7.6;;;;;;;;;;;;;
2023/02/28 01:21:36;;;;;;;9.5;7.4;;;;;;;;;;;;;
2023/02/28 01:24:02;;;;;;;8.4;6.8;;;;;;;;;;;;;
2023/02/28 01:26:27;;;;;;;8.6;6.5;;;;;;;;;;;;;
2023/02/28 01:28:53;;;;;;;9.5;6.6;;;;;;;;;;;;;
2023/02/28 01:31:18;;;;;;;7.5;6.7;;;;;;;;;;;;;
2023/02/28 01:33:45;;;;;;;9.3;7.1;;;;;;;;;;;;;
2023/02/28 01:36:10;;;;;;;8.8;6.7;;;;;;;;;;;;;
2023/02/28 01:38:37;;;;;;;9.7;6.8;;;;;;;;;;;;;
2023/02/28 01:41:02;;;;;;;9.3;7.4;;;;;;;;;;;;;
2023/02/28 01:43:31;;;;;;;8.9;6.9;;;;;;;;;;;;;
2023/02/28 01:45:57;;;;;;;9.1;7.3;;;;;;;;;;;;;
2023/02/28 01:48:22;;;;;;;8.4;6.9;;;;;;;;;;;;;
2023/02/28 01:50:49;;;;;;;9.3;6.9;;;;;;;;;;;;;
2023/02/28 01:53:14;;;;;;;9.5;6.7;;;;;;;;;;;;;
2023/02/28 01:55:39;;;;;;;11.9;7.2;;;;;;;;;;;;;
2023/02/28 01:58:04;;;;;;;11.7;8.1;;;;;;;;;;;;;
2023/02/28 02:00:29;;;;;;;9.6;7.8;;;;;;;;;;;;;
2023/02/28 02:02:55;;;;;;;10.7;8;;;;;;;;;;;;;
2023/02/28 02:05:21;;;;;;;9.5;7.4;;;;;;;;;;;;;
2023/02/28 02:07:46;;;;;;;10.9;8.5;;;;;;;;;;;;;
2023/02/28 02:10:16;;;;;;;13.2;9.2;;;;;;;;;;;;;
2023/02/28 02:12:40;;;;;;;10.9;8.2;;;;;;;;;;;;;
2023/02/28 02:15:06;;;;;;;9.7;7.5;;;;;;;;;;;;;
2023/02/28 02:17:31;;;;;;;11.8;8.5;;;;;;;;;;;;;
2023/02/28 02:19:57;;;;;;;10.6;8.3;;;;;;;;;;;;;
2023/02/28 02:22:22;;;;;;;10.3;8.4;;;;;;;;;;;;;
2023/02/28 02:24:47;;;;;;;12;8.9;;;;;;;;;;;;;
2023/02/28 02:27:14;;;;;;;12.7;9.2;;;;;;;;;;;;;
2023/02/28 02:29:39;;;;;;;11.3;9.3;;;;;;;;;;;;;
2023/02/28 02:32:04;;;;;;;11.6;9;;;;;;;;;;;;;
2023/02/28 02:34:29;;;;;;;12.4;9.5;;;;;;;;;;;;;
2023/02/28 02:36:55;;;;;;;12.7;9.2;;;;;;;;;;;;;
2023/02/28 02:39:21;;;;;;;14.1;9.5;;;;;;;;;;;;;
2023/02/28 02:41:47;;;;;;;14.5;9.9;;;;;;;;;;;;;
2023/02/28 02:44:12;;;;;;;12.7;9.3;;;;;;;;;;;;;
2023/02/28 02:46:37;;;;;;;15.5;9.8;;;;;;;;;;;;;
2023/02/28 02:49:03;;;;;;;13.3;9.6;;;;;;;;;;;;;
2023/02/28 02:51:29;;;;;;;13.6;9.5;;;;;;;;;;;;;
2023/02/28 02:53:54;;;;;;;12.1;9.5;;;;;;;;;;;;;
2023/02/28 02:56:19;;;;;;;12.4;9.2;;;;;;;;;;;;;
2023/02/28 02:58:44;;;;;;;12.5;9;;;;;;;;;;;;;
2023/02/28 03:01:11;;;;;;;12.2;9.1;;;;;;;;;;;;;
2023/02/28 03:03:36;;;;;;;10.7;8.8;;;;;;;;;;;;;
2023/02/28 03:06:02;;;;;;;12.4;8.3;;;;;;;;;;;;;
2023/02/28 03:08:27;;;;;;;11;8.6;;;;;;;;;;;;;
2023/02/28 03:10:53;;;;;;;11.3;8.2;;;;;;;;;;;;;
2023/02/28 03:13:19;;;;;;;11;9;;;;;;;;;;;;;
2023/02/28 03:15:45;;;;;;;10.7;8.8;;;;;;;;;;;;;
2023/02/28 03:18:11;;;;;;;10;8;;;;;;;;;;;;;
2023/02/28 03:20:36;;;;;;;11.9;7.9;;;;;;;;;;;;;
2023/02/28 03:23:01;;;;;;;11.5;8.9;;;;;;;;;;;;;
2023/02/28 03:25:26;;;;;;;12.3;8.9;;;;;;;;;;;;;
2023/02/28 03:27:51;;;;;;;10.8;8.3;;;;;;;;;;;;;
2023/02/28 03:30:17;;;;;;;9.5;7.6;;;;;;;;;;;;;
2023/02/28 03:32:42;;;;;;;10.4;7.6;;;;;;;;;;;;;
2023/02/28 03:35:12;;;;;;;16;8.9;;;;;;;;;;;;;
2023/02/28 03:37:37;;;;;;;13.4;8.5;;;;;;;;;;;;;
2023/02/28 03:40:03;;;;;;;11;8.1;;;;;;;;;;;;;
2023/02/28 03:42:28;;;;;;;12.8;8.6;;;;;;;;;;;;;
2023/02/28 03:44:53;;;;;;;10.1;8.1;;;;;;;;;;;;;
2023/02/28 03:47:18;;;;;;;10.6;8.2;;;;;;;;;;;;;
2023/02/28 03:49:45;;;;;;;58.4;12.3;;;;;;;;;;;;;
2023/02/28 03:52:10;;;;;;;12.9;8.9;;;;;;;;;;;;;
2023/02/28 03:54:36;;;;;;;12.3;8.8;;;;;;;;;;;;;
2023/02/28 03:57:02;;;;;;;13.2;9.6;;;;;;;;;;;;;
2023/02/28 03:59:26;;;;;;;12.2;9.5;;;;;;;;;;;;;
2023/02/28 04:02:39;;;;;;;12.2;9.1;;;;;;;-4.6;88.01172;939.3489;;;;
2023/02/28 04:05:02;;;;;;;11.2;8;;;;;;;-4.49;86.93262;939.3669;;;;
2023/02/28 04:07:28;;;;;;;18.4;9.7;;;;;;;-4.75;86.27246;939.3564;;;;
2023/02/28 04:09:55;;;;;;;12.1;8.7;;;;;;;-5.02;87.06543;939.3879;;;;
2023/02/28 04:12:22;;;;;;;11.4;8.4;;;;;;;-4.94;87.77637;939.4309;;;;
2023/02/28 04:14:46;;;;;;;11.8;8.4;;;;;;;-4.73;86.97168;939.3982;;;;
2023/02/28 04:17:19;;;;;;;12.4;8;;;;;;;-4.69;86.27441;939.4;;;;
2023/02/28 04:19:44;;;;;;;10.4;7.9;;;;;;;-4.78;86.74023;939.3814;;;;
2023/02/28 04:22:17;;;;;;;10.7;8;;;;;;;-4.67;86.18066;939.4194;;;;
2023/02/28 04:24:41;;;;;;;10;7.6;;;;;;;-4.77;85.83887;939.5156;;;;
2023/02/28 04:27:05;;;;;;;13.2;8.3;;;;;;;-4.71;86.14941;939.5042;;;;
2023/02/28 04:29:35;;;;;;;82.9;13.9;;;;;;;-5.15;84.75977;939.5201;;;;
2023/02/28 04:32:05;;;;;;;8.1;6;;;;;;;-5.32;85.22168;939.5625;;;;
2023/02/28 04:34:35;;;;;;;8.4;6.4;;;;;;;-5.24;85.06152;939.5349;;;;
2023/02/28 04:37:05;;;;;;;108.5;14.6;;;;;;;-5.48;84.86914;939.5284;;;;
2023/02/28 04:39:30;;;;;;;45.4;8.8;;;;;;;-5.81;84.59277;939.6199;;;;
2023/02/28 04:41:58;;;;;;;10.4;6.6;;;;;;;-5.76;85.19531;939.6926;;;;
2023/02/28 04:44:23;;;;;;;12;7.2;;;;;;;-5.79;85.53027;939.68;;;;
2023/02/28 04:46:50;;;;;;;14.1;8.1;;;;;;;-5.75;86.24023;939.6933;;;;
2023/02/28 04:49:15;;;;;;;12.1;8;;;;;;;-5.63;86.02539;939.6781;;;;
2023/02/28 04:51:39;;;;;;;10.7;7.2;;;;;;;-5.55;86.11914;939.6528;;;;
2023/02/28 04:54:07;;;;;;;11.6;7.8;;;;;;;-5.55;86.42676;939.688;;;;
2023/02/28 04:56:32;;;;;;;13.6;8.5;;;;;;;-5.68;86.22266;939.6613;;;;
2023/02/28 04:59:01;;;;;;;12.6;8.2;;;;;;;-5.84;86.01465;939.7095;;;;
2023/02/28 05:01:26;;;;;;;14.3;8.9;;;;;;;-5.88;85.34668;939.7785;;;;
2023/02/28 05:03:56;;;;;;;11.5;8.3;;;;;;;-5.82;85.25;939.8005;;;;
2023/02/28 05:06:23;;;;;;;13.4;8.2;;;;;;;-5.76;85.75684;939.8512;;;;
2023/02/28 05:08:48;;;;;;;12.5;8.8;;;;;;;-5.63;85.64063;939.9021;;;;
2023/02/28 05:11:14;;;;;;;14.6;9;;;;;;;-5.47;85.77051;939.9089;;;;
2023/02/28 05:13:39;;;;;;;11.4;7.9;;;;;;;-5.42;85.78418;939.8198;;;;
2023/02/28 05:16:11;;;;;;;12.2;8.2;;;;;;;-5.52;86.00293;939.8954;;;;
2023/02/28 05:18:38;;;;;;;14.9;8.8;;;;;;;-5.55;86.30566;939.9066;;;;
2023/02/28 05:21:03;;;;;;;11.5;8.2;;;;;;;-5.52;86.6084;939.8815;;;;
2023/02/28 05:23:29;;;;;;;13.6;9;;;;;;;-5.48;87.36328;939.9294;;;;
2023/02/28 05:25:53;;;;;;;12.8;9;;;;;;;-5.45;87.2168;939.9319;;;;
2023/02/28 05:28:22;;;;;;;18;9.5;;;;;;;-5.51;87.40137;939.9623;;;;
2023/02/28 05:30:47;;;;;;;14;8.9;;;;;;;-5.47;87.77344;940.0126;;;;
2023/02/28 05:33:12;;;;;;;13.8;9.1;;;;;;;-5.39;88.06543;939.991;;;;
2023/02/28 05:35:42;;;;;;;11.8;8.2;;;;;;;-5.36;87.87402;940.0211;;;;
2023/02/28 05:38:15;;;;;;;12.3;8.1;;;;;;;-5.3;87.70898;939.9034;;;;
2023/02/28 05:40:41;;;;;;;11.3;8.6;;;;;;;-5.13;87.58008;939.8894;;;;
2023/02/28 05:43:13;;;;;;;13.9;9.1;;;;;;;-4.95;87.15527;940.0684;;;;
2023/02/28 05:45:46;;;;;;;11.1;8.5;;;;;;;-4.96;87.13379;940.0244;;;;
2023/02/28 05:48:16;;;;;;;12.8;8.6;;;;;;;-5.06;87.34375;940.0639;;;;
2023/02/28 05:50:47;;;;;;;22.7;13.2;;;;;;;-5.06;87.67383;940.0919;;;;
2023/02/28 05:53:16;;;;;;;13.6;9;;;;;;;-4.93;87.24902;940.0973;;;;
2023/02/28 05:55:42;;;;;;;14.8;9.4;;;;;;;-4.91;87.24219;940.1713;;;;
2023/02/28 05:58:11;;;;;;;14.4;9.4;;;;;;;-4.81;87.15137;940.1686;;;;
2023/02/28 06:00:43;;;;;;;14.3;9.9;;;;;;;-4.88;87.37988;940.2178;;;;
2023/02/28 06:03:14;;;;;;;14.9;10.7;;;;;;;-4.92;87.74707;940.1802;;;;
2023/02/28 06:05:43;;;;;;;15.5;10.3;;;;;;;-4.87;88.18359;940.2809;;;;
2023/02/28 06:08:12;;;;;;;16.6;10.4;;;;;;;-4.94;88.41309;940.2971;;;;
2023/02/28 06:10:37;;;;;;;16;10.6;;;;;;;-4.95;89.02734;940.3455;;;;
2023/02/28 06:13:58;;;;;;;15.1;10.3;;;;;;;-4.94;89.30664;940.3605;;;;
2023/02/28 06:16:23;;;;;;;15.4;10.9;;;;;;;-4.87;89.39648;940.275;;;;
2023/02/28 06:18:50;;;;;;;18.3;12.2;;;;;;;-4.88;89.74707;940.4297;;;;
2023/02/28 06:21:15;;;;;;;16.7;11;;;;;;;-4.69;90.13867;940.4358;;;;
2023/02/28 06:23:43;;;;;;;18.8;12.8;;;;;;;-4.34;89.64355;940.4264;;;;
2023/02/28 06:26:08;;;;;;;19.9;13.2;;;;;;;-4.1;88.86621;940.4658;;;;
2023/02/28 06:28:38;;;;;;;20.4;13.3;;;;;;;-3.87;88.41797;940.4371;;;;
2023/02/28 06:31:02;;;;;;;22;14.2;;;;;;;-3.77;87.84473;940.4326;;;;
2023/02/28 06:33:28;;;;;;;20.5;14.4;;;;;;;-3.62;86.81641;940.4969;;;;
2023/02/28 06:36:08;;;;;;;19.5;13.7;;;;;;;-3.54;86.59082;940.4278;;;;
2023/02/28 06:38:36;;;;;;;18.8;12.5;;;;;;;-3.37;86.02734;940.5449;;;;
2023/02/28 06:41:01;;;;;;;19.3;12.7;;;;;;;-3.19;86.15332;940.4874;;;;
2023/02/28 06:43:29;;;;;;;22.9;13.4;;;;;;;-3.16;85.60742;940.5942;;;;
2023/02/28 06:45:55;;;;;;;22.1;12.7;;;;;;;-2.97;85.56738;940.6398;;;;
2023/02/28 06:48:21;;;;;;;18.9;11.8;;;;;;;-2.95;85.14258;940.6361;;;;
2023/02/28 06:50:46;;;;;;;16.2;11.2;;;;;;;-2.93;84.39258;940.6283;;;;
2023/02/28 06:53:11;;;;;;;18.3;12.1;;;;;;;-3.01;84.14258;940.6711;;;;
2023/02/28 06:55:40;;;;;;;17.1;11.6;;;;;;;-2.89;84.1123;940.6611;;;;
2023/02/28 06:58:14;;;;;;;17.3;11.6;;;;;;;-2.91;83.83203;940.7467;;;;
2023/02/28 07:00:30;;;;;;;19.6;12.3;;;;;;;-2.87;83.19922;940.7156;;;;
2023/02/28 07:02:55;;;;;;;18;12.1;;;;;;;-2.96;83.42285;940.738;;;;
2023/02/28 07:05:21;;;;;;;20.3;12.5;;;;;;;-2.8;83.47754;940.7603;;;;
2023/02/28 07:07:52;;;;;;;18.4;12.6;;;;;;;-2.8;82.74707;940.7413;;;;
2023/02/28 07:10:23;;;;;;;19.7;13;;;;;;;-2.85;83.03516;940.7322;;;;
2023/02/28 07:12:51;;;;;;;19.7;12.9;;;;;;;-2.58;83.06641;940.723;;;;
2023/02/28 07:15:16;;;;;;;17.3;11.6;;;;;;;-2.65;82.3125;940.7202;;;;
2023/02/28 07:17:41;;;;;;;20;12.8;;;;;;;-2.53;82.31543;940.7197;;;;
2023/02/28 07:20:14;;;;;;;16.7;12;;;;;;;-2.24;81.85156;940.6502;;;;
2023/02/28 07:22:43;;;;;;;18.2;12.1;;;;;;;-1.88;81.39844;940.6571;;;;
2023/02/28 07:25:14;;;;;;;19.1;11.8;;;;;;;-1.87;80.11523;940.6324;;;;
2023/02/28 07:27:45;;;;;;;19.4;12.8;;;;;;;-1.76;79.62598;940.639;;;;
2023/02/28 07:30:14;;;;;;;19.3;13.1;;;;;;;-1.64;78.83789;940.5731;;;;
2023/02/28 07:32:39;;;;;;;18.4;13.1;;;;;;;-1.48;78.29004;940.663;;;;
2023/02/28 07:35:09;;;;;;;18.7;12.8;;;;;;;-1.29;77.02734;940.6941;;;;
2023/02/28 07:37:36;;;;;;;18.4;12.5;;;;;;;-1.07;76.87793;940.6817;;;;
2023/02/28 07:40:06;;;;;;;16.5;10.7;;;;;;;-0.99;75.54883;940.6669;;;;
2023/02/28 07:42:36;;;;;;;18.6;11.7;;;;;;;-1.02;76.00879;940.7734;;;;
2023/02/28 07:45:07;;;;;;;16.6;11.9;;;;;;;-0.62;75.90234;940.7416;;;;
2023/02/28 07:47:35;;;;;;;18.1;11.7;;;;;;;-0.41;73.94824;940.7078;;;;
2023/02/28 07:50:00;;;;;;;18.1;12.2;;;;;;;-0.36;73.15723;940.7542;;;;
2023/02/28 07:52:32;;;;;;;18.1;12.2;;;;;;;-0.28;71.96973;940.7483;;;;
2023/02/28 07:55:00;;;;;;;16.9;12.4;;;;;;;-0.48;71.49023;940.738;;;;
2023/02/28 07:57:25;;;;;;;17.5;12.5;;;;;;;-0.57;72.69727;940.8594;;;;
2023/02/28 07:59:52;;;;;;;17.5;12.1;;;;;;;-0.29;72.55664;940.8201;;;;
2023/02/28 08:02:17;;;;;;;16.4;11.1;;;;;;;-0.13;71.20313;940.8275;;;;
2023/02/28 08:04:47;;;;;;;14.7;11.4;;;;;;;0.43;71.4541;940.8678;;;;
2023/02/28 08:07:17;;;;;;;12.4;9.5;;;;;;;0.79;67.53125;940.8289;;;;
2023/02/28 08:09:42;;;;;;;10.5;8.6;;;;;;;1.03;65.6377;940.8569;;;;
2023/02/28 08:12:12;;;;;;;13.3;10;;;;;;;2.03;63.11719;940.8342;;;;
2023/02/28 08:14:42;;;;;;;14.7;10.5;;;;;;;2.06;62.03613;940.8443;;;;
2023/02/28 08:17:14;;;;;;;12.7;9.8;;;;;;;2.2;61.44043;940.8338;;;;
2023/02/28 08:19:40;;;;;;;13.6;10;;;;;;;2.45;60.33398;940.7881;;;;
2023/02/28 08:22:10;;;;;;;14.3;10.1;;;;;;;2.53;60.59277;940.8727;;;;
2023/02/28 08:24:35;;;;;;;13.6;10.1;;;;;;;2.6;59.82813;940.8472;;;;
2023/02/28 08:27:05;;;;;;;13.9;9.7;;;;;;;2.88;58.71191;940.8267;;;;
2023/02/28 08:29:36;;;;;;;13.9;9.8;;;;;;;2.87;57.76953;940.8459;;;;
2023/02/28 08:32:01;;;;;;;12;9;;;;;;;2.25;58.49219;940.9127;;;;
2023/02/28 08:34:30;;;;;;;13.3;9.7;;;;;;;2.22;59.37305;940.9632;;;;
2023/02/28 08:36:55;;;;;;;13.2;10.3;;;;;;;2.03;60.93457;940.9158;;;;
2023/02/28 08:39:27;;;;;;;15.1;10.6;;;;;;;2.4;60.55176;940.9012;;;;
2023/02/28 08:41:57;;;;;;;13.7;10.4;;;;;;;3.66;56.58398;940.902;;;;
2023/02/28 08:44:27;;;;;;;13;10.4;;;;;;;3.74;55.59473;940.85;;;;
2023/02/28 08:46:52;;;;;;;13.8;10.4;;;;;;;3.61;56.28613;940.9378;;;;
2023/02/28 08:49:18;;;;;;;12;9.9;;;;;;;2.91;57.39355;940.9916;;;;
2023/02/28 08:51:43;;;;;;;12.8;9.4;;;;;;;2.78;58.82324;940.9545;;;;
2023/02/28 08:54:12;;;;;;;10.8;8.8;;;;;;;3.73;55.58203;940.9464;;;;
2023/02/28 08:56:36;;;;;;;11.1;8.8;;;;;;;4.27;52.53711;940.913;;;;
2023/02/28 08:59:01;;;;;;;14.1;9.9;;;;;;;4.88;53.21973;940.9286;;;;
2023/02/28 09:01:27;;;;;;;12.1;9.4;;;;;;;4.96;51.61816;940.8967;;;;
2023/02/28 09:03:52;;;;;;;10.8;8.4;;;;;;;5.83;49.50879;940.8593;;;;
2023/02/28 09:06:20;;;;;;;9.6;8.3;;;;;;;5.45;48.81152;940.9266;;;;
2023/02/28 09:08:46;;;;;;;11.7;8.5;;;;;;;5.69;49.15527;940.8309;;;;
2023/02/28 09:11:15;;;;;;;9.5;8.1;;;;;;;5.79;48.27441;940.8934;;;;
2023/02/28 09:13:40;;;;;;;9.7;7.6;;;;;;;6.07;47.06348;940.8168;;;;
2023/02/28 09:16:05;;;;;;;10.3;7.7;;;;;;;6.62;46.20703;940.8481;;;;
2023/02/28 09:18:37;;;;;;;11.6;8.1;;;;;;;6.22;46.68457;940.9253;;;;
2023/02/28 09:21:01;;;;;;;11.1;8.9;;;;;;;6.56;46.49512;940.9308;;;;
2023/02/28 09:23:26;;;;;;;9.4;7.7;;;;;;;6.29;45.75195;940.9587;;;;
2023/02/28 09:25:53;;;;;;;9.9;8.3;;;;;;;6.18;46.06934;940.9529;;;;
2023/02/28 09:28:18;;;;;;;9;8.1;;;;;;;6.23;46.67285;940.9103;;;;
2023/02/28 09:30:44;;;;;;;9.8;8.5;;;;;;;6.97;45.28223;940.9172;;;;
2023/02/28 09:33:09;;;;;;;9.2;7.8;;;;;;;7.12;44.93555;940.9455;;;;
2023/02/28 09:35:38;;;;;;;10;8.3;;;;;;;7.22;44.73047;940.9792;;;;
2023/02/28 09:38:04;;;;;;;9.4;7.9;;;;;;;7.63;44.05859;941.0447;;;;
2023/02/28 09:40:32;;;;;;;9.9;8.4;;;;;;;7.89;43.00879;941.038;;;;
2023/02/28 09:42:57;;;;;;;8.1;7.1;;;;;;;7.68;43.27051;941.0698;;;;
2023/02/28 09:45:24;;;;;;;9.3;7.7;;;;;;;7.2;44.53613;941.1058;;;;
2023/02/28 09:47:50;;;;;;;9.1;7.5;;;;;;;5.8;47.48438;941.0486;;;;
2023/02/28 09:50:18;;;;;;;8.8;7.7;;;;;;;5.25;49.03711;941.1376;;;;
2023/02/28 09:52:47;;;;;;;8.8;7.4;;;;;;;5.17;50.08789;941.1558;;;;
2023/02/28 09:55:13;;;;;;;8.6;7.4;;;;;;;6.17;47.61621;941.1295;;;;
2023/02/28 09:57:39;;;;;;;9.4;7.9;;;;;;;5.66;49.28711;941.1484;;;;
2023/02/28 10:00:07;;;;;;;8.2;7.1;;;;;;;6.29;47.49414;941.1211;;;;
2023/02/28 10:02:29;;;;;;;8.3;7.3;;;;;;;6.06;49.17578;941.1375;;;;
2023/02/28 10:04:57;;;;;;;9.5;7.3;;;;;;;6.66;47.30859;941.198;;;;
2023/02/28 10:07:27;;;;;;;8.9;7.7;;;;;;;6.76;47.34277;941.2184;;;;
2023/02/28 10:09:52;;;;;;;9.7;8.5;;;;;;;6.09;48.21777;941.1722;;;;
2023/02/28 10:12:17;;;;;;;9.7;7.9;;;;;;;6.02;48.61621;941.2634;;;;
2023/02/28 10:14:42;;;;;;;9.7;7.9;;;;;;;5.87;48.98438;941.2725;;;;
2023/02/28 10:17:07;;;;;;;10.7;8;;;;;;;5.24;50.88477;941.3588;;;;
2023/02/28 10:19:33;;;;;;;9.7;7.9;;;;;;;5.13;51.25586;941.3772;;;;
2023/02/28 10:21:57;;;;;;;8.8;7.9;;;;;;;5.08;52.18555;941.3998;;;;
2023/02/28 10:24:22;;;;;;;11.4;9;;;;;;;3.86;54.90234;941.5041;;;;
2023/02/28 10:26:51;;;;;;;9.7;8.3;;;;;;;4.54;53.3916;941.5112;;;;
2023/02/28 10:29:18;;;;;;;10.8;8;;;;;;;4.39;53.72168;941.5597;;;;
2023/02/28 10:31:43;;;;;;;11.2;8.3;;;;;;;4.18;54.50488;941.5923;;;;
2023/02/28 10:34:12;;;;;;;8.7;7.7;;;;;;;3.87;54.9043;941.5037;;;;
2023/02/28 10:36:37;;;;;;;9.2;7.9;;;;;;;3.64;55.71777;941.4991;;;;
2023/02/28 10:39:02;;;;;;;9.6;7.7;;;;;;;4.05;55.54492;941.6023;;;;
2023/02/28 10:41:28;;;;;;;9.6;7.8;;;;;;;3.71;55.25391;941.5686;;;;
2023/02/28 10:43:53;;;;;;;10.1;8.1;;;;;;;3.29;56.4248;941.5251;;;;
2023/02/28 10:46:25;;;;;;;10;8.1;;;;;;;3.32;56.62988;941.5657;;;;
2023/02/28 10:48:43;;;;;;;10.9;9.1;;;;;;;3.8;55.49023;941.5808;;;;
2023/02/28 10:51:10;;;;;;;10.7;8.9;;;;;;;3.85;55.76758;941.5361;;;;
2023/02/28 10:53:35;;;;;;;12.5;8.4;;;;;;;4.01;56.00195;941.5678;;;;
2023/02/28 10:56:00;;;;;;;10.7;8.8;;;;;;;3.89;55.64844;941.4722;;;;
2023/02/28 10:58:25;;;;;;;11.4;8.5;;;;;;;3.56;56.69531;941.538;;;;
2023/02/28 11:00:50;;;;;;;9;8.1;;;;;;;3.78;56.49902;941.5722;;;;
2023/02/28 11:03:15;;;;;;;8.9;7.8;;;;;;;3.34;57.48535;941.5302;;;;
2023/02/28 11:05:45;;;;;;;10.8;8.2;;;;;;;3.2;58.99316;941.5884;;;;
2023/02/28 11:08:11;;;;;;;9.5;8.5;;;;;;;3.35;58.02637;941.5686;;;;
2023/02/28 11:10:40;;;;;;;10.4;8.2;;;;;;;3.28;58.3291;941.452;;;;
2023/02/28 11:13:07;;;;;;;9.6;7.9;;;;;;;3.27;58.64355;941.5164;;;;
2023/02/28 11:15:35;;;;;;;10.7;8.7;;;;;;;2.85;59.97559;941.5671;;;;
2023/02/28 11:18:03;;;;;;;11.7;9.2;;;;;;;3.11;60.89941;941.6116;;;;
2023/02/28 11:20:28;;;;;;;10.4;8.7;;;;;;;3.5;59.00098;941.5952;;;;
2023/02/28 11:22:58;;;;;;;10.3;8.3;;;;;;;2.92;58.47168;941.5072;;;;
2023/02/28 11:25:23;;;;;;;11.2;9;;;;;;;3.33;59.74023;941.5446;;;;
2023/02/28 11:27:52;;;;;;;10.6;8.7;;;;;;;3.51;58.82227;941.5483;;;;
2023/02/28 11:30:17;;;;;;;9.6;7.9;;;;;;;4.1;56.08008;941.5483;;;;
2023/02/28 11:32:42;;;;;;;12;9.5;;;;;;;4.33;56.08887;941.556;;;;
2023/02/28 11:35:13;;;;;;;10.6;8.9;;;;;;;5.1;53.41699;941.5078;;;;
2023/02/28 11:37:47;;;;;;;12.3;8.9;;;;;;;5.04;53.25195;941.5255;;;;
2023/02/28 11:40:11;;;;;;;11.9;8.9;;;;;;;4.69;54.41406;941.5259;;;;
2023/02/28 11:42:41;;;;;;;11.8;9;;;;;;;4.57;54.70215;941.6497;;;;
2023/02/28 11:45:06;;;;;;;11.3;9.4;;;;;;;4.75;54.43262;941.5776;;;;
2023/02/28 11:47:37;;;;;;;9.8;8.6;;;;;;;4.94;53.53125;941.5483;;;;
2023/02/28 11:50:02;;;;;;;11;9.5;;;;;;;4.07;55.34473;941.5289;;;;
2023/02/28 11:52:27;;;;;;;11.4;9;;;;;;;4.12;55.33008;941.6786;;;;
2023/02/28 11:54:52;;;;;;;11.4;9.4;;;;;;;3.1;58.27246;941.6387;;;;
2023/02/28 11:57:20;;;;;;;13.2;10.1;;;;;;;3.24;58.91992;941.6147;;;;
2023/02/28 11:59:47;;;;;;;12.5;10;;;;;;;3.18;58.85449;941.5491;;;;
2023/02/28 12:02:12;;;;;;;12.1;9.6;;;;;;;3.47;57.50293;941.6483;;;;
2023/02/28 12:04:38;;;;;;;12.5;9.6;;;;;;;2.9;59.0752;941.674;;;;
2023/02/28 12:07:03;;;;;;;12.6;10.1;;;;;;;2.98;60.01758;941.7191;;;;
2023/02/28 12:09:28;;;;;;;12.2;9.9;;;;;;;3.65;57.80859;941.7128;;;;
2023/02/28 12:11:54;;;;;;;11.6;9.3;;;;;;;3.41;57.70801;941.624;;;;
2023/02/28 12:14:18;;;;;;;11.6;9.3;;;;;;;3.6;59.46484;941.7431;;;;
2023/02/28 12:16:48;;;;;;;13;10.1;;;;;;;3.76;58.51953;941.7083;;;;
2023/02/28 12:19:13;;;;;;;11.8;9.6;;;;;;;4.71;55.54199;941.756;;;;
2023/02/28 12:21:38;;;;;;;11.3;9.2;;;;;;;4.51;55.98926;941.7626;;;;
2023/02/28 12:24:06;;;;;;;12.2;9.6;;;;;;;5.01;54.61133;941.7452;;;;
2023/02/28 12:26:31;;;;;;;12;9;;;;;;;5.73;51.7002;941.6769;;;;
2023/02/28 12:28:57;;;;;;;11.3;9;;;;;;;5.88;52.10254;941.6735;;;;
2023/02/28 12:31:23;;;;;;;11.4;9.6;;;;;;;5.84;50.67383;941.5881;;;;
2023/02/28 12:33:47;;;;;;;12.2;8.8;;;;;;;6.44;50.46191;941.6089;;;;
2023/02/28 12:36:18;;;;;;;12.5;9.9;;;;;;;6.28;50.25195;941.5539;;;;
2023/02/28 12:38:45;;;;;;;11.2;9.4;;;;;;;6.46;49.88867;941.4997;;;;
2023/02/28 14:02:36;;;;;;;11.3;9.9;;;;;;;1.03;71.44434;941.3753;;;;
2023/02/28 14:05:01;;;;;;;16.5;12;;;;;;;1.09;70.77246;941.4934;;;;
2023/02/28 14:07:26;;;;;;;17.5;12.9;;;;;;;1.34;70.49121;941.5558;;;;
2023/02/28 14:09:51;;;;;;;16.6;12.2;;;;;;;1.43;69.58789;941.5836;;;;
2023/02/28 14:12:18;;;;;;;17.5;13.1;;;;;;;1.2;70.66797;941.568;;;;
2023/02/28 14:14:45;;;;;;;17.4;13.1;;;;;;;1.3;69.95996;941.5758;;;;
2023/02/28 14:17:15;;;;;;;16.1;12.6;;;;;;;1.27;69.68457;941.5339;;;;
2023/02/28 14:19:40;;;;;;;16.4;12.8;;;;;;;1.17;70.64258;941.4883;;;;
2023/02/28 14:22:06;;;;;;;18;12.7;;;;;;;1.15;70.93848;941.5583;;;;
2023/02/28 14:24:35;;;;;;;18.1;13.4;;;;;;;1.05;71.87207;941.5388;;;;
2023/02/28 14:27:00;;;;;;;18.8;13.4;;;;;;;1.21;71.65234;941.5679;;;;
2023/02/28 14:29:25;;;;;;;16.4;12.8;;;;;;;0.93;72.39746;941.5854;;;;
2023/02/28 14:31:55;;;;;;;16.9;12.6;;;;;;;0.78;72.70801;941.5999;;;;
2023/02/28 14:34:20;;;;;;;17.3;13.3;;;;;;;0.7;73.70898;941.5981;;;;
2023/02/28 14:36:46;;;;;;;18.4;13.5;;;;;;;0.96;72.71484;941.5564;;;;
2023/02/28 14:39:11;;;;;;;16.9;13.1;;;;;;;1.02;72.28027;941.615;;;;
2023/02/28 14:41:38;;;;;;;20.5;14.6;;;;;;;1.01;72.3125;941.6144;;;;
2023/02/28 14:44:04;;;;;;;18.4;12.8;;;;;;;1.06;71.8623;941.6127;;;;
2023/02/28 14:46:31;;;;;;;18.1;13;;;;;;;0.98;71.79297;941.618;;;;
2023/02/28 14:48:59;;;;;;;17.6;13;;;;;;;0.69;72.64648;941.6027;;;;
2023/02/28 14:51:27;;;;;;;17.8;13.3;;;;;;;0.64;72.97461;941.6545;;;;
2023/02/28 14:53:52;;;;;;;20.2;14.4;;;;;;;0.55;73.39258;941.6627;;;;
2023/02/28 14:56:17;;;;;;;30.3;18.9;;;;;;;0.5;74.54492;941.7425;;;;
2023/02/28 14:58:42;;;;;;;37.2;23.1;;;;;;;0.66;74.19238;941.7109;;;;
2023/02/28 15:01:07;;;;;;;18.9;14;;;;;;;0.67;73.75977;941.6756;;;;
2023/02/28 15:03:32;;;;;;;27.2;17.1;;;;;;;0.56;74.5332;941.611;;;;
2023/02/28 15:06:01;;;;;;;21;14.5;;;;;;;0.31;74.90137;941.6351;;;;
2023/02/28 15:08:29;;;;;;;19.4;14.2;;;;;;;0.37;75.93848;941.7355;;;;
2023/02/28 15:10:52;;;;;;;20.7;15;;;;;;;0.33;76.01953;941.6989;;;;
2023/02/28 15:13:17;;;;;;;20.3;14.6;;;;;;;0.41;75.62305;941.796;;;;
2023/02/28 15:15:43;;;;;;;20.5;14.7;;;;;;;0.08;76.9873;941.8417;;;;
2023/02/28 15:18:11;;;;;;;21.3;15.6;;;;;;;0.25;76.78516;941.8403;;;;
2023/02/28 15:20:36;;;;;;;20.2;15.3;;;;;;;0.39;76.76465;941.8169;;;;
2023/02/28 15:23:05;;;;;;;19.5;14.6;;;;;;;0.42;75.58984;941.8042;;;;
2023/02/28 15:25:31;;;;;;;19.9;15;;;;;;;0.46;75.76465;941.8603;;;;
2023/02/28 15:27:59;;;;;;;19.9;15.1;;;;;;;0.42;75.76758;941.9247;;;;
2023/02/28 15:30:24;;;;;;;22.3;15.9;;;;;;;0.57;75.62793;941.9241;;;;
2023/02/28 15:32:54;;;;;;;19.8;15;;;;;;;0.17;76.36914;941.8397;;;;
2023/02/28 15:35:21;;;;;;;19.6;14.6;;;;;;;0.18;76.67285;941.989;;;;
2023/02/28 15:37:49;;;;;;;21.7;15.2;;;;;;;-0.24;77.93164;942.0421;;;;
2023/02/28 15:40:19;;;;;;;22.3;16.6;;;;;;;-0.15;78.82813;942.0566;;;;
2023/02/28 15:42:45;;;;;;;20.1;15.5;;;;;;;-0.02;78.03906;942.0684;;;;
2023/02/28 15:45:11;;;;;;;22.8;15.4;;;;;;;-0.01;77.75098;942.0447;;;;
2023/02/28 15:47:41;;;;;;;20.7;15.4;;;;;;;0.08;77.74707;941.9875;;;;
2023/02/28 15:50:07;;;;;;;21;15.4;;;;;;;0.02;77.72266;942.0331;;;;
2023/02/28 15:52:33;;;;;;;22.6;16.2;;;;;;;-0.22;79.18359;942.077;;;;
2023/02/28 15:54:59;;;;;;;23.1;16.2;;;;;;;-0.2;79.43066;942.0919;;;;
2023/02/28 15:57:26;;;;;;;22.6;15.9;;;;;;;-0.22;79.41602;942.1252;;;;
2023/02/28 15:59:52;;;;;;;21.6;16;;;;;;;-0.09;79.47461;942.1704;;;;
2023/02/28 16:02:17;;;;;;;23;16.4;;;;;;;-0.08;79.43066;942.1519;;;;
2023/02/28 16:04:42;;;;;;;23.9;16.6;;;;;;;-0.05;78.83691;942.1141;;;;
2023/02/28 16:07:08;;;;;;;24;17;;;;;;;-0.07;78.78809;942.1627;;;;
2023/02/28 16:09:32;;;;;;;23.4;16.5;;;;;;;-0.38;80.19824;942.1052;;;;
2023/02/28 16:11:58;;;;;;;26.3;17.9;;;;;;;-0.13;79.78906;942.2142;;;;
2023/02/28 16:14:24;;;;;;;22.7;16.9;;;;;;;-0.05;79.26074;942.1923;;;;
2023/02/28 16:16:50;;;;;;;23.6;17.5;;;;;;;0.01;78.92578;942.1597;;;;
2023/02/28 16:19:15;;;;;;;23.7;17.5;;;;;;;-0.13;79.38867;942.1869;;;;
2023/02/28 16:21:44;;;;;;;23.1;17.3;;;;;;;-0.39;80.19824;942.1997;;;;
2023/02/28 16:24:09;;;;;;;23.7;17.1;;;;;;;-0.22;80.20605;942.2307;;;;
2023/02/28 16:26:37;;;;;;;25.5;18.4;;;;;;;-0.09;80.19922;942.2486;;;;
2023/02/28 16:29:00;;;;;;;27.2;19.3;;;;;;;-0.2;80.01074;942.2484;;;;
2023/02/28 16:31:25;;;;;;;26.4;18.9;;;;;;;-0.2;80.38965;942.2653;;;;
2023/02/28 16:33:53;;;;;;;24.1;17.7;;;;;;;-0.13;79.95605;942.3137;;;;
2023/02/28 16:36:18;;;;;;;23.7;16.8;;;;;;;-0.02;79.68945;942.2378;;;;
2023/02/28 16:38:47;;;;;;;25.1;17.8;;;;;;;-0.04;79.75098;942.3116;;;;
2023/02/28 16:41:16;;;;;;;24.8;18;;;;;;;-0.1;79.74023;942.2809;;;;
2023/02/28 16:43:38;;;;;;;24.6;17.7;;;;;;;0;79.44531;942.2659;;;;
2023/02/28 16:46:03;;;;;;;26.2;18.8;;;;;;;-0.01;79.64453;942.2829;;;;
2023/02/28 16:48:34;;;;;;;25.8;17.6;;;;;;;0.1;79.25293;942.2819;;;;